createdAt,value
2019-04-11T00:02:16.345Z,9.90
2019-04-11T00:04:46.321Z,9.67
2019-04-11T00:07:16.235Z,10.30
2019-04-11T00:09:45.625Z,9.57
2019-04-11T00:12:15.164Z,10.30
2019-04-11T00:14:46.631Z,10.20
2019-04-11T00:17:15.662Z,10.07
2019-04-11T00:19:45.419Z,10.57
2019-04-11T00:22:15.211Z,10.87
2019-04-11T00:24:45.210Z,10.03
2019-04-11T00:27:14.950Z,10.13
2019-04-11T00:29:44.869Z,9.73
2019-04-11T00:32:14.331Z,10.57
2019-04-11T00:34:44.861Z,10.67
2019-04-11T00:37:14.388Z,10.33
2019-04-11T00:39:43.792Z,10.10
2019-04-11T00:42:13.205Z,11.70
2019-04-11T00:44:43.164Z,10.57
2019-04-11T00:47:13.066Z,9.93
2019-04-11T00:49:42.932Z,10.87
2019-04-11T00:52:12.613Z,10.27
2019-04-11T00:54:42.753Z,10.00
2019-04-11T00:57:12.765Z,10.30
2019-04-11T00:59:42.604Z,9.97
2019-04-11T01:02:12.148Z,10.37
2019-04-11T01:04:41.475Z,10.23
2019-04-11T01:07:11.118Z,9.37
2019-04-11T01:09:40.415Z,10.13
2019-04-11T01:12:10.215Z,10.07
2019-04-11T01:14:40.658Z,10.50
2019-04-11T01:17:10.189Z,10.53
2019-04-11T01:19:40.666Z,10.03
2019-04-11T01:22:10.282Z,10.33
2019-04-11T01:24:39.899Z,10.23
2019-04-11T01:27:09.824Z,10.50
2019-04-11T01:29:39.806Z,10.17
2019-04-11T01:32:10.658Z,10.30
2019-04-11T01:34:40.467Z,10.13
2019-04-11T01:37:09.995Z,10.37
2019-04-11T01:39:59.937Z,10.73
2019-04-11T01:42:29.939Z,10.43
2019-04-11T01:44:59.454Z,11.27
2019-04-11T01:47:51.056Z,10.23
2019-04-11T01:50:27.161Z,13.37
2019-04-11T01:52:56.502Z,13.97
2019-04-11T01:55:26.215Z,15.07
2019-04-11T01:57:55.719Z,16.43
2019-04-11T02:00:50.898Z,16.03
2019-04-11T02:03:25.709Z,17.00
2019-04-11T02:05:55.159Z,16.13
2019-04-11T02:08:25.024Z,15.03
2019-04-11T02:10:54.642Z,16.93
2019-04-11T02:13:24.122Z,16.13
2019-04-11T02:15:56.759Z,16.37
2019-04-11T02:18:25.581Z,16.20
2019-04-11T02:20:55.746Z,16.70
2019-04-11T02:23:35.476Z,15.53
2019-04-11T02:26:11.531Z,16.40
2019-04-11T02:28:41.200Z,16.07
2019-04-11T02:31:12.276Z,16.43
2019-04-11T02:33:43.187Z,15.60
2019-04-11T02:36:13.722Z,16.77
2019-04-11T02:38:44.080Z,16.00
2019-04-11T02:41:14.225Z,17.50
2019-04-11T02:43:44.488Z,17.77
2019-04-11T02:46:22.963Z,17.50
2019-04-11T02:48:45.499Z,20.30
2019-04-11T02:51:15.171Z,19.23
2019-04-11T02:53:45.130Z,19.13
2019-04-11T02:56:15.037Z,17.07
2019-04-11T02:58:46.322Z,15.83
2019-04-11T03:01:15.742Z,16.53
2019-04-11T03:03:45.636Z,12.90
2019-04-11T03:06:15.370Z,13.20
2019-04-11T03:08:46.397Z,11.77
2019-04-11T03:11:16.701Z,11.80
2019-04-11T03:13:48.535Z,12.50
2019-04-11T03:16:32.805Z,12.47
2019-04-11T03:19:06.964Z,12.30
2019-04-11T03:21:23.543Z,11.47
2019-04-11T03:23:51.963Z,10.83
2019-04-11T03:26:21.636Z,10.63
2019-04-11T03:28:54.496Z,11.17
2019-04-11T03:34:39.798Z,12.00
2019-04-11T03:39:14.955Z,11.10
2019-04-11T03:41:42.798Z,11.93
2019-04-11T03:44:06.613Z,11.30
2019-04-11T03:46:48.031Z,11.17
2019-04-11T03:49:16.499Z,10.73
2019-04-11T03:51:34.086Z,10.57
2019-04-11T03:54:05.047Z,9.97
2019-04-11T03:56:35.068Z,9.73
2019-04-11T03:59:06.225Z,9.33
2019-04-11T04:01:36.058Z,9.77
2019-04-11T04:04:06.628Z,9.93
2019-04-11T04:06:37.392Z,9.97
2019-04-11T04:09:08.982Z,9.50
2019-04-11T04:11:40.835Z,11.47
2019-04-11T04:14:21.335Z,9.77
2019-04-11T04:17:27.927Z,12.07
2019-04-11T04:20:22.246Z,10.87
2019-04-11T04:23:00.548Z,9.23
2019-04-11T04:25:30.451Z,19.00
2019-04-11T04:27:59.824Z,10.60
2019-04-11T04:30:29.895Z,10.87
2019-04-11T04:33:00.599Z,10.83
2019-04-11T04:35:31.688Z,11.37
2019-04-11T04:38:03.083Z,10.80
2019-04-11T04:40:49.961Z,11.60
2019-04-11T04:43:07.369Z,12.17
2019-04-11T04:45:54.136Z,10.27
2019-04-11T04:48:11.188Z,11.57
2019-04-11T04:50:39.199Z,14.73
2019-04-11T04:53:09.262Z,13.83
2019-04-11T04:55:38.954Z,11.20
2019-04-11T04:58:09.163Z,12.90
2019-04-11T05:00:39.644Z,15.20
2019-04-11T05:03:09.861Z,12.80
2019-04-11T05:05:39.907Z,13.50
2019-04-11T05:08:10.753Z,14.80
2019-04-11T05:10:40.809Z,12.87
2019-04-11T05:13:11.918Z,13.57
2019-04-11T05:15:42.162Z,13.90
2019-04-11T05:18:15.180Z,14.53
2019-04-11T05:20:44.233Z,13.07
2019-04-11T05:23:13.964Z,13.77
2019-04-11T05:25:44.562Z,14.90
2019-04-11T05:28:14.213Z,14.10
2019-04-11T05:30:44.871Z,13.80
2019-04-11T05:33:14.599Z,12.97
2019-04-11T05:35:44.073Z,13.30
2019-04-11T05:38:13.626Z,13.03
2019-04-11T05:40:43.190Z,12.87
2019-04-11T05:43:13.563Z,14.10
2019-04-11T05:45:42.841Z,13.10
2019-04-11T05:48:23.982Z,13.87
2019-04-11T05:50:53.826Z,13.87
2019-04-11T05:53:23.490Z,14.63
2019-04-11T05:55:53.181Z,15.80
2019-04-11T05:58:22.589Z,18.23
2019-04-11T06:00:58.322Z,17.30
2019-04-11T06:03:28.325Z,18.53
2019-04-11T06:06:04.785Z,17.97
2019-04-11T06:08:35.604Z,18.77
2019-04-11T06:11:24.164Z,19.20
2019-04-11T06:14:15.215Z,18.13
2019-04-11T06:16:52.614Z,21.67
2019-04-11T06:19:47.924Z,16.53
2019-04-11T06:22:19.721Z,16.70
2019-04-11T06:24:58.669Z,17.40
2019-04-11T06:27:49.996Z,18.37
2019-04-11T06:30:37.309Z,17.97
2019-04-11T06:33:22.609Z,18.03
2019-04-11T06:36:23.307Z,20.30
2019-04-11T06:39:11.362Z,19.83
2019-04-11T06:41:48.626Z,20.37
2019-04-11T06:44:34.273Z,19.63
2019-04-11T06:47:34.906Z,21.43
2019-04-11T06:50:22.963Z,19.93
2019-04-11T06:52:53.260Z,19.27
2019-04-11T06:55:44.754Z,20.20
2019-04-11T06:58:19.290Z,19.80
2019-04-11T07:00:53.667Z,20.93
2019-04-11T07:03:29.240Z,18.37
2019-04-11T07:05:59.391Z,19.40
2019-04-11T07:08:34.182Z,19.80
2019-04-11T07:11:07.282Z,20.30
2019-04-11T07:13:49.802Z,21.37
2019-04-11T07:16:19.978Z,19.67
2019-04-11T07:19:21.717Z,17.97
2019-04-11T07:21:52.618Z,19.60
2019-04-11T07:24:25.430Z,24.87
2019-04-11T07:27:09.537Z,19.70
2019-04-11T07:29:58.522Z,19.00
2019-04-11T07:32:29.876Z,19.53
2019-04-11T07:35:17.405Z,19.37
2019-04-11T07:37:49.378Z,20.47
2019-04-11T07:40:39.408Z,19.47
2019-04-11T07:43:15.754Z,19.17
2019-04-11T07:46:19.901Z,18.17
2019-04-11T07:48:50.490Z,18.63
2019-04-11T07:51:37.080Z,18.70
2019-04-11T07:54:25.941Z,17.87
2019-04-11T07:57:04.178Z,18.77
2019-04-11T07:59:42.591Z,18.40
2019-04-11T08:02:29.460Z,18.70
2019-04-11T08:05:32.839Z,31.63
2019-04-11T08:08:26.979Z,22.60
2019-04-11T08:11:15.748Z,24.07
2019-04-11T08:14:00.028Z,19.33
2019-04-11T08:16:47.238Z,17.77
2019-04-11T08:19:51.253Z,18.23
2019-04-11T08:22:39.202Z,18.13
2019-04-11T08:25:33.943Z,18.23
2019-04-11T08:28:07.566Z,17.23
2019-04-11T08:30:54.948Z,17.10
2019-04-11T08:33:25.018Z,16.93
2019-04-11T08:36:19.820Z,16.47
2019-04-11T08:38:49.322Z,18.37
2019-04-11T08:41:47.557Z,17.20
2019-04-11T08:44:23.888Z,16.20
2019-04-11T08:47:06.400Z,15.30
2019-04-11T08:49:41.852Z,14.70
2019-04-11T08:52:22.527Z,14.00
2019-04-11T08:55:02.181Z,11.17
2019-04-11T08:57:41.572Z,11.20
2019-04-11T09:00:36.309Z,12.40
2019-04-11T09:03:15.917Z,12.80
2019-04-11T09:06:02.611Z,13.20
2019-04-11T09:08:59.000Z,6.67
2019-04-11T09:11:32.963Z,2.20
2019-04-11T09:14:20.302Z,1.90
2019-04-11T09:16:59.021Z,1.57
2019-04-11T09:19:51.513Z,1.27
2019-04-11T09:22:49.075Z,1.17
2019-04-11T09:25:36.951Z,1.13
2019-04-11T09:28:17.505Z,1.50
2019-04-11T09:31:15.383Z,3.43
2019-04-11T09:34:03.801Z,1.80
2019-04-11T09:36:52.067Z,2.37
2019-04-11T09:39:41.447Z,2.40
2019-04-11T09:42:28.387Z,2.00
2019-04-11T09:45:23.479Z,2.37
2019-04-11T09:48:17.823Z,2.27
2019-04-11T09:51:03.516Z,1.40
2019-04-11T09:53:34.437Z,1.63
2019-04-11T09:56:41.042Z,1.83
2019-04-11T09:59:14.572Z,2.33
2019-04-11T10:02:18.822Z,1.53
2019-04-11T10:04:48.499Z,1.90
2019-04-11T10:07:42.563Z,1.27
2019-04-11T10:10:40.369Z,1.00
2019-04-11T10:13:26.862Z,2.27
2019-04-11T10:16:18.274Z,5.97
2019-04-11T10:19:07.608Z,3.03
2019-04-11T10:21:37.826Z,4.60
2019-04-11T10:24:26.439Z,8.57
2019-04-11T10:27:12.178Z,7.27
2019-04-11T10:29:59.585Z,2.50
2019-04-11T10:32:32.973Z,1.33
2019-04-11T10:35:22.026Z,2.07
2019-04-11T10:37:51.909Z,3.23
2019-04-11T10:40:41.972Z,5.80
2019-04-11T10:43:11.900Z,1.73
2019-04-11T10:45:58.781Z,2.60
2019-04-11T10:48:37.758Z,2.00
2019-04-11T10:51:18.984Z,1.70
2019-04-11T10:53:49.712Z,3.23
2019-04-11T10:56:49.500Z,2.20
2019-04-11T10:59:19.545Z,3.83
2019-04-11T11:02:21.020Z,6.80
2019-04-11T11:04:53.198Z,3.80
2019-04-11T11:07:26.664Z,3.47
2019-04-11T11:10:05.118Z,2.57
2019-04-11T11:12:47.711Z,4.60
2019-04-11T11:15:23.302Z,2.43
2019-04-11T11:18:41.210Z,1.57
2019-04-11T11:21:09.248Z,1.50
2019-04-11T11:23:57.067Z,1.87
2019-04-11T11:26:29.456Z,3.63
2019-04-11T11:29:27.068Z,3.30
2019-04-11T11:32:03.063Z,2.80
2019-04-11T11:34:39.515Z,3.87
2019-04-11T11:37:31.263Z,1.47
2019-04-11T11:40:39.203Z,1.90
2019-04-11T11:43:34.959Z,4.40
2019-04-11T11:46:12.214Z,1.40
2019-04-11T11:48:54.333Z,2.93
2019-04-11T11:51:43.622Z,1.77
2019-04-11T11:54:19.790Z,3.30
2019-04-11T11:56:50.608Z,1.97
2019-04-11T11:59:35.121Z,1.30
2019-04-11T12:02:08.489Z,2.30
2019-04-11T12:05:14.657Z,1.17
2019-04-11T12:07:51.513Z,3.07
2019-04-11T12:10:29.236Z,1.43
2019-04-11T12:13:17.480Z,3.47
2019-04-11T12:16:05.683Z,0.93
2019-04-11T12:18:54.945Z,1.30
2019-04-11T12:21:29.393Z,0.77
2019-04-11T12:24:17.530Z,2.00
2019-04-11T12:26:57.633Z,1.60
2019-04-11T12:29:48.948Z,1.37
2019-04-11T12:32:20.418Z,2.13
2019-04-11T12:35:08.796Z,1.30
2019-04-11T12:37:51.846Z,1.43
2019-04-11T12:40:50.538Z,1.87
2019-04-11T12:43:19.947Z,1.60
2019-04-11T12:46:07.316Z,0.90
2019-04-11T12:48:43.105Z,1.30
2019-04-11T12:51:37.651Z,1.27
2019-04-11T12:54:15.626Z,1.83
2019-04-11T12:57:04.807Z,1.60
2019-04-11T12:59:34.174Z,1.87
2019-04-11T13:02:31.408Z,2.13
2019-04-11T13:05:00.783Z,1.40
2019-04-11T13:07:52.176Z,1.97
2019-04-11T13:10:32.482Z,1.40
2019-04-11T13:13:20.637Z,1.30
2019-04-11T13:16:12.199Z,1.73
2019-04-11T13:18:57.579Z,1.80
2019-04-11T13:21:35.615Z,3.37
2019-04-11T13:24:27.123Z,2.00
2019-04-11T13:27:16.625Z,2.00
2019-04-11T13:30:05.025Z,1.93
2019-04-11T13:32:52.555Z,1.57
2019-04-11T13:35:36.133Z,1.40
2019-04-11T13:38:08.322Z,1.60
2019-04-11T13:41:02.554Z,1.60
2019-04-11T13:43:57.625Z,1.70
2019-04-11T13:46:51.850Z,2.07
2019-04-11T13:49:46.550Z,4.60
2019-04-11T13:52:34.923Z,1.43
2019-04-11T13:55:29.954Z,3.00
2019-04-11T13:58:21.255Z,1.13
2019-04-11T14:00:51.540Z,1.03
2019-04-11T14:03:39.959Z,1.40
2019-04-11T14:06:16.331Z,1.30
2019-04-11T14:09:19.957Z,1.40
2019-04-11T14:11:50.865Z,1.43
2019-04-11T14:14:39.321Z,1.40
2019-04-11T14:17:43.027Z,1.00
2019-04-11T14:20:28.587Z,1.50
2019-04-11T14:23:14.774Z,1.63
2019-04-11T14:25:59.458Z,1.60
2019-04-11T14:28:59.950Z,1.67
2019-04-11T14:31:46.259Z,2.00
2019-04-11T14:34:33.241Z,1.90
2019-04-11T14:37:37.734Z,2.67
2019-04-11T14:40:03.642Z,1.30
2019-04-11T14:42:50.547Z,1.63
2019-04-11T14:45:38.802Z,2.80
2019-04-11T14:48:30.738Z,1.73
2019-04-11T14:51:10.465Z,1.50
2019-04-11T14:53:55.791Z,1.10
2019-04-11T14:56:27.152Z,1.30
2019-04-11T14:59:14.157Z,1.20
2019-04-11T15:01:44.977Z,1.73
2019-04-11T15:04:32.290Z,1.10
2019-04-11T15:07:01.748Z,3.00
2019-04-11T15:09:55.849Z,3.20
2019-04-11T15:12:26.592Z,1.37
2019-04-11T15:15:19.285Z,1.57
2019-04-11T15:17:50.538Z,2.87
2019-04-11T15:20:24.225Z,2.53
2019-04-11T15:23:15.800Z,2.17
2019-04-11T15:26:07.885Z,1.77
2019-04-11T15:28:38.423Z,1.80
2019-04-11T15:31:18.525Z,1.77
2019-04-11T15:34:17.754Z,1.97
2019-04-11T15:36:58.791Z,2.90
2019-04-11T15:39:59.352Z,3.77
2019-04-11T15:42:47.700Z,2.60
2019-04-11T15:45:36.028Z,2.00
2019-04-11T15:48:23.840Z,2.27
2019-04-11T15:51:15.101Z,3.30
2019-04-11T15:54:12.413Z,3.70
2019-04-11T15:56:53.385Z,4.37
2019-04-11T15:59:44.021Z,2.83
2019-04-11T16:02:30.933Z,2.90
2019-04-11T16:05:34.584Z,2.47
2019-04-11T16:08:17.315Z,2.10
2019-04-11T16:10:52.848Z,3.53
2019-04-11T16:13:53.125Z,4.08
2019-04-11T16:16:28.010Z,3.53
2019-04-11T16:19:25.162Z,6.83
2019-04-11T16:22:14.958Z,2.80
2019-04-11T16:24:44.753Z,3.10
2019-04-11T16:27:34.286Z,5.27
2019-04-11T16:30:07.906Z,6.63
2019-04-11T16:32:39.966Z,4.30
2019-04-11T16:35:33.086Z,4.13
2019-04-11T16:38:04.150Z,4.23
2019-04-11T16:40:58.595Z,3.77
2019-04-11T16:43:27.967Z,3.87
2019-04-11T16:46:20.295Z,2.87
2019-04-11T16:48:49.792Z,3.40
2019-04-11T16:51:30.138Z,2.90
2019-04-11T16:53:50.262Z,2.80
2019-04-11T16:56:19.563Z,2.80
2019-04-11T16:58:50.095Z,3.90
2019-04-11T17:01:23.155Z,3.37
2019-04-11T17:03:54.839Z,3.67
2019-04-11T17:06:39.702Z,5.20
2019-04-11T17:09:16.379Z,3.27
2019-04-11T17:11:45.958Z,4.10
2019-04-11T17:14:22.703Z,3.97
2019-04-11T17:16:48.289Z,4.20
2019-04-11T17:19:17.850Z,4.40
2019-04-11T17:21:48.336Z,18.30
2019-04-11T17:24:18.378Z,10.40
2019-04-11T17:26:47.762Z,16.17
2019-04-11T17:29:17.258Z,11.10
2019-04-11T17:31:46.794Z,11.67
2019-04-11T17:34:16.269Z,13.13
2019-04-11T17:36:45.838Z,9.77
2019-04-11T17:39:15.261Z,15.53
2019-04-11T17:41:44.933Z,10.90
2019-04-11T17:44:14.424Z,9.87
2019-04-11T17:46:43.924Z,11.20
2019-04-11T17:49:13.345Z,16.13
2019-04-11T17:51:50.382Z,10.80
2019-04-11T17:54:13.997Z,9.93
2019-04-11T17:56:43.398Z,9.60
2019-04-11T17:59:12.982Z,12.57
2019-04-11T18:01:42.718Z,17.23
2019-04-11T18:04:13.510Z,12.87
2019-04-11T18:06:46.973Z,16.20
2019-04-11T18:09:14.833Z,18.40
2019-04-11T18:11:44.237Z,12.03
2019-04-11T18:14:13.703Z,9.60
2019-04-11T18:16:43.334Z,9.07
2019-04-11T18:19:13.002Z,12.07
2019-04-11T18:21:42.523Z,30.53
2019-04-11T18:24:11.927Z,8.40
2019-04-11T18:26:42.998Z,7.47
2019-04-11T18:29:12.550Z,7.40
2019-04-11T18:31:42.039Z,7.90
2019-04-11T18:34:11.354Z,7.70
2019-04-11T18:36:40.845Z,7.87
2019-04-11T18:39:10.304Z,7.23
2019-04-11T18:41:39.847Z,7.27
2019-04-11T18:44:09.385Z,6.73
2019-04-11T18:46:38.985Z,6.67
2019-04-11T18:49:08.437Z,9.87
2019-04-11T18:51:38.013Z,8.90
2019-04-11T18:54:07.860Z,9.97
2019-04-11T18:56:38.229Z,8.97
2019-04-11T18:59:07.915Z,9.20
2019-04-11T19:01:39.983Z,8.97
2019-04-11T19:04:11.782Z,9.50
2019-04-11T19:06:42.579Z,9.60
2019-04-11T19:09:14.099Z,9.17
2019-04-11T19:11:46.244Z,8.43
2019-04-11T19:14:16.004Z,8.60
2019-04-11T19:16:46.839Z,9.17
2019-04-11T19:19:18.399Z,11.17
2019-04-11T19:21:50.835Z,6.50
2019-04-11T19:24:18.893Z,6.73
2019-04-11T19:26:48.314Z,6.10
2019-04-11T19:29:17.684Z,4.40
2019-04-11T19:31:47.093Z,5.00
2019-04-11T19:34:16.552Z,4.33
2019-04-11T19:36:46.103Z,4.77
2019-04-11T19:39:16.006Z,4.97
2019-04-11T19:41:47.807Z,5.00
2019-04-11T19:44:18.936Z,3.50
2019-04-11T19:46:48.476Z,4.43
2019-04-11T19:49:18.437Z,4.17
2019-04-11T19:51:47.979Z,3.50
2019-04-11T19:54:17.410Z,4.10
2019-04-11T19:57:01.224Z,4.17
2019-04-11T19:59:30.615Z,4.20
2019-04-11T20:02:00.155Z,5.63
2019-04-11T20:04:29.610Z,7.10
2019-04-11T20:06:58.981Z,14.80
2019-04-11T20:09:28.568Z,9.77
2019-04-11T20:12:00.864Z,7.60
2019-04-11T20:14:29.350Z,6.67
2019-04-11T20:16:58.951Z,8.03
2019-04-11T20:19:28.393Z,7.13
2019-04-11T20:21:57.842Z,7.63
2019-04-11T20:24:27.334Z,9.00
2019-04-11T20:26:56.816Z,9.07
2019-04-11T20:29:27.367Z,8.77
2019-04-11T20:31:56.787Z,8.70
2019-04-11T20:34:27.780Z,10.50
2019-04-11T20:36:57.416Z,9.33
2019-04-11T20:39:26.964Z,8.67
2019-04-11T20:41:56.339Z,9.23
2019-04-11T20:44:27.417Z,8.60
2019-04-11T20:47:00.175Z,9.37
2019-04-11T20:49:28.195Z,7.70
2019-04-11T20:51:57.615Z,8.70
2019-04-11T20:54:27.232Z,8.87
2019-04-11T20:56:56.734Z,8.17
2019-04-11T20:59:34.447Z,8.67
2019-04-11T21:01:57.448Z,7.87
2019-04-11T21:04:26.916Z,8.50
2019-04-11T21:06:56.342Z,8.90
2019-04-11T21:09:25.781Z,8.83
2019-04-11T21:11:55.250Z,9.77
2019-04-11T21:14:24.788Z,11.77
2019-04-11T21:16:54.227Z,11.27
2019-04-11T21:19:23.870Z,11.17
2019-04-11T21:21:53.584Z,13.57
2019-04-11T21:24:23.746Z,12.27
2019-04-11T21:26:53.124Z,13.93
2019-04-11T21:29:22.648Z,13.63
2019-04-11T21:31:52.206Z,12.50
2019-04-11T21:34:21.628Z,14.27
2019-04-11T21:36:51.210Z,14.97
2019-04-11T21:39:20.570Z,15.53
2019-04-11T21:41:50.077Z,12.07
2019-04-11T21:44:19.413Z,10.43
2019-04-11T21:46:49.447Z,10.00
2019-04-11T21:49:18.814Z,9.50
2019-04-11T21:51:48.270Z,9.00
2019-04-11T21:54:17.734Z,10.00
2019-04-11T21:56:49.635Z,12.33
2019-04-11T21:59:21.040Z,10.67
2019-04-11T22:01:53.839Z,10.30
2019-04-11T22:04:21.742Z,10.77
2019-04-11T22:06:51.305Z,8.47
2019-04-11T22:09:20.839Z,7.83
2019-04-11T22:11:50.142Z,7.53
2019-04-11T22:14:19.502Z,6.80
2019-04-11T22:16:48.988Z,6.83
2019-04-11T22:19:18.467Z,7.37
2019-04-11T22:21:47.977Z,8.63
2019-04-11T22:24:17.449Z,9.10
2019-04-11T22:26:50.102Z,10.43
2019-04-11T22:29:18.136Z,10.13
2019-04-11T22:31:47.490Z,11.53
2019-04-11T22:34:36.697Z,10.67
2019-04-11T22:37:06.088Z,8.83
2019-04-11T22:39:35.461Z,10.03
2019-04-11T22:42:04.795Z,9.67
2019-04-11T22:44:35.561Z,10.40
2019-04-11T22:47:07.790Z,10.27
2019-04-11T22:49:36.847Z,9.83
2019-04-11T22:52:07.717Z,9.13
2019-04-11T22:54:37.118Z,8.83
2019-04-11T22:57:06.517Z,7.77
2019-04-11T22:59:35.998Z,7.50
2019-04-11T23:02:16.907Z,6.33
2019-04-11T23:04:47.168Z,4.83
2019-04-11T23:07:17.782Z,5.00
2019-04-11T23:09:48.965Z,5.63
2019-04-11T23:12:19.113Z,5.40
2019-04-11T23:14:48.570Z,5.13
2019-04-11T23:17:18.156Z,5.70
2019-04-11T23:19:47.498Z,5.17
2019-04-11T23:22:16.904Z,4.97
2019-04-11T23:24:46.410Z,5.40
2019-04-11T23:27:15.869Z,5.07
2019-04-11T23:29:47.119Z,5.70
2019-04-11T23:32:18.762Z,6.93
2019-04-11T23:34:49.916Z,8.10
2019-04-11T23:37:21.157Z,7.70
2019-04-11T23:39:51.069Z,6.43
2019-04-11T23:42:20.941Z,5.97
2019-04-11T23:44:51.140Z,4.70
2019-04-11T23:47:23.107Z,4.50
2019-04-11T23:49:55.096Z,3.90
2019-04-11T23:52:26.453Z,4.27
2019-04-11T23:54:54.319Z,3.57
2019-04-11T23:57:23.558Z,4.10
2019-04-11T23:59:53.228Z,3.60
